createdAt,value
2022-10-03T00:02:06.664Z,12.50
2022-10-03T00:05:31.037Z,14.50
2022-10-03T00:08:58.595Z,15.93
2022-10-03T00:12:16.025Z,14.75
2022-10-03T00:15:28.448Z,16.08
2022-10-03T00:19:09.305Z,14.75
2022-10-03T00:22:27.263Z,14.18
2022-10-03T00:25:39.933Z,15.60
2022-10-03T00:29:04.348Z,14.40
2022-10-03T00:32:48.164Z,16.90
2022-10-03T00:36:04.143Z,15.55
2022-10-03T00:39:44.888Z,15.68
2022-10-03T00:43:32.102Z,17.58
2022-10-03T00:47:22.859Z,15.10
2022-10-03T00:50:56.922Z,16.38
2022-10-03T00:54:15.860Z,13.52
2022-10-03T00:57:55.355Z,15.75
2022-10-03T01:01:21.529Z,14.23
2022-10-03T01:04:43.151Z,13.07
2022-10-03T01:08:09.947Z,14.23
2022-10-03T01:11:27.908Z,12.02
2022-10-03T01:15:10.423Z,14.25
2022-10-03T01:18:33.143Z,13.77
2022-10-03T01:21:48.869Z,14.20
2022-10-03T01:25:00.634Z,13.93
2022-10-03T01:28:48.276Z,18.33
2022-10-03T01:31:58.947Z,14.40
2022-10-03T01:35:17.879Z,13.63
2022-10-03T01:38:29.067Z,12.70
2022-10-03T01:41:39.257Z,14.57
2022-10-03T01:45:02.375Z,12.95
2022-10-03T01:48:13.223Z,16.33
2022-10-03T01:51:23.474Z,20.70
2022-10-03T01:54:36.303Z,13.52
2022-10-03T01:57:46.759Z,13.60
2022-10-03T02:01:00.669Z,12.90
2022-10-03T02:04:16.331Z,15.13
2022-10-03T02:07:29.808Z,13.65
2022-10-03T02:10:45.146Z,14.73
2022-10-03T02:13:53.027Z,16.80
2022-10-03T02:17:06.180Z,15.82
2022-10-03T02:20:23.801Z,15.65
2022-10-03T02:23:45.331Z,14.85
2022-10-03T02:27:45.044Z,13.43
2022-10-03T02:31:38.092Z,19.13
2022-10-03T02:35:42.994Z,14.38
2022-10-03T02:39:28.699Z,14.95
2022-10-03T02:43:18.011Z,15.30
2022-10-03T02:47:14.250Z,17.45
2022-10-03T02:50:54.163Z,18.02
2022-10-03T02:55:05.407Z,15.38
2022-10-03T02:59:21.084Z,12.50
2022-10-03T03:03:20.392Z,12.68
2022-10-03T03:07:10.631Z,12.60
2022-10-03T03:10:39.899Z,11.70
2022-10-03T03:14:39.204Z,12.00
2022-10-03T03:17:51.553Z,12.02
2022-10-03T03:21:14.604Z,11.57
2022-10-03T03:24:44.344Z,14.85
2022-10-03T03:28:02.211Z,12.25
2022-10-03T03:31:13.369Z,11.68
2022-10-03T03:34:25.802Z,13.20
2022-10-03T03:37:40.418Z,12.95
2022-10-03T03:40:58.025Z,17.83
2022-10-03T03:44:46.179Z,13.43
2022-10-03T03:48:24.304Z,14.25
2022-10-03T03:51:38.980Z,10.43
2022-10-03T03:55:15.179Z,11.90
2022-10-03T03:58:33.468Z,11.20
2022-10-03T04:01:53.307Z,14.25
2022-10-03T04:05:12.622Z,12.20
2022-10-03T04:08:35.584Z,12.00
2022-10-03T04:11:56.316Z,10.57
2022-10-03T04:15:51.122Z,11.15
2022-10-03T04:19:03.038Z,10.52
2022-10-03T04:22:33.147Z,12.65
2022-10-03T04:25:56.092Z,10.90
2022-10-03T04:29:45.663Z,13.60
2022-10-03T04:33:05.587Z,11.35
2022-10-03T04:37:09.643Z,10.52
2022-10-03T04:40:29.197Z,13.30
2022-10-03T04:43:43.865Z,11.48
2022-10-03T04:46:56.128Z,10.95
2022-10-03T04:50:08.802Z,12.82
2022-10-03T04:53:41.063Z,11.60
2022-10-03T04:56:54.037Z,15.10
2022-10-03T05:00:12.711Z,11.10
2022-10-03T05:03:34.995Z,11.95
2022-10-03T05:06:58.342Z,13.77
2022-10-03T05:10:27.800Z,15.10
2022-10-03T05:13:44.943Z,14.70
2022-10-03T05:16:56.504Z,21.33
2022-10-03T05:20:22.508Z,18.42
2022-10-03T05:23:43.098Z,17.48
2022-10-03T05:26:59.080Z,15.63
2022-10-03T05:30:09.097Z,13.57
2022-10-03T05:33:26.182Z,15.75
2022-10-03T05:36:41.991Z,17.48
2022-10-03T05:39:56.829Z,15.73
2022-10-03T05:43:23.836Z,15.40
2022-10-03T05:47:00.796Z,15.23
2022-10-03T05:51:01.692Z,16.75
2022-10-03T05:54:48.364Z,18.55
2022-10-03T05:58:29.563Z,20.33
2022-10-03T06:02:14.006Z,15.30
2022-10-03T06:05:32.329Z,15.40
2022-10-03T06:09:19.897Z,18.63
2022-10-03T06:12:30.620Z,16.85
2022-10-03T06:15:54.716Z,14.85
2022-10-03T06:19:16.833Z,17.23
2022-10-03T06:23:08.937Z,15.52
2022-10-03T06:26:56.043Z,14.88
2022-10-03T06:30:17.947Z,13.32
2022-10-03T06:34:10.020Z,15.48
2022-10-03T06:38:09.463Z,16.30
2022-10-03T06:41:43.142Z,14.55
2022-10-03T06:45:46.614Z,13.63
2022-10-03T06:49:50.123Z,17.05
2022-10-03T06:53:40.270Z,12.73
2022-10-03T06:57:12.862Z,15.07
2022-10-03T07:00:20.036Z,19.10
2022-10-03T07:04:06.341Z,14.70
2022-10-03T07:07:50.520Z,13.93
2022-10-03T07:11:15.334Z,17.67
2022-10-03T07:15:08.075Z,15.27
2022-10-03T07:18:57.494Z,14.65
2022-10-03T07:23:01.727Z,17.65
2022-10-03T07:27:12.436Z,18.10
2022-10-03T07:30:19.824Z,13.93
2022-10-03T07:33:41.668Z,15.65
2022-10-03T07:37:24.193Z,13.48
2022-10-03T07:40:58.761Z,17.35
2022-10-03T07:44:50.710Z,16.67
2022-10-03T07:48:50.872Z,13.82
2022-10-03T07:52:23.479Z,16.85
2022-10-03T07:55:53.692Z,14.27
2022-10-03T07:59:21.823Z,15.57
2022-10-03T08:03:30.260Z,14.02
2022-10-03T08:06:42.370Z,13.73
2022-10-03T08:10:05.163Z,15.63
2022-10-03T08:13:28.210Z,14.75
2022-10-03T08:17:15.348Z,17.92
2022-10-03T08:20:43.887Z,13.32
2022-10-03T08:24:27.611Z,15.25
2022-10-03T08:27:47.499Z,14.88
2022-10-03T08:31:31.075Z,17.20
2022-10-03T08:35:09.831Z,12.85
2022-10-03T08:38:55.164Z,14.48
2022-10-03T08:42:47.924Z,13.38
2022-10-03T08:46:07.241Z,17.65
2022-10-03T08:49:34.168Z,13.52
2022-10-03T08:53:09.439Z,13.25
2022-10-03T08:56:17.723Z,12.73
2022-10-03T09:00:11.312Z,11.82
2022-10-03T09:04:03.709Z,18.00
2022-10-03T09:07:36.022Z,12.43
2022-10-03T09:11:30.332Z,19.35
2022-10-03T09:15:18.399Z,17.85
2022-10-03T09:18:58.620Z,14.05
2022-10-03T09:22:38.018Z,16.67
2022-10-03T09:26:05.756Z,12.18
2022-10-03T09:29:47.008Z,12.55
2022-10-03T09:33:51.566Z,13.25
2022-10-03T09:37:40.483Z,13.25
2022-10-03T09:41:32.432Z,16.50
2022-10-03T09:45:22.152Z,12.18
2022-10-03T09:49:07.495Z,10.68
2022-10-03T09:52:28.180Z,10.70
2022-10-03T09:55:42.114Z,10.85
2022-10-03T09:59:06.412Z,12.45
2022-10-03T10:02:41.894Z,10.38
2022-10-03T10:06:25.169Z,10.65
2022-10-03T10:10:05.447Z,12.93
2022-10-03T10:13:49.834Z,16.13
2022-10-03T10:17:45.122Z,10.95
2022-10-03T10:21:38.073Z,14.48
2022-10-03T10:25:09.763Z,12.07
2022-10-03T10:28:44.389Z,12.38
2022-10-03T10:32:52.692Z,18.73
2022-10-03T10:36:57.435Z,11.30
2022-10-03T10:40:47.172Z,10.85
2022-10-03T10:44:57.837Z,11.48
2022-10-03T10:49:07.791Z,13.55
2022-10-03T10:53:03.833Z,12.00
2022-10-03T10:56:52.960Z,14.05
2022-10-03T11:00:22.936Z,12.35
2022-10-03T11:04:14.867Z,12.27
2022-10-03T11:08:04.381Z,15.18
2022-10-03T11:12:00.122Z,14.85
2022-10-03T11:16:08.985Z,13.40
2022-10-03T11:20:06.443Z,11.95
2022-10-03T11:24:13.196Z,13.32
2022-10-03T11:28:16.698Z,12.82
2022-10-03T11:32:09.724Z,15.23
2022-10-03T11:36:05.549Z,13.10
2022-10-03T11:39:17.311Z,17.02
2022-10-03T11:42:33.453Z,14.23
2022-10-03T11:45:45.726Z,16.17
2022-10-03T11:48:55.592Z,12.75
2022-10-03T11:52:14.722Z,13.02
2022-10-03T11:55:30.019Z,12.65
2022-10-03T11:58:55.544Z,16.35
2022-10-03T12:02:14.806Z,13.93
2022-10-03T12:05:28.378Z,15.98
2022-10-03T12:08:54.096Z,13.20
2022-10-03T12:12:05.139Z,14.38
2022-10-03T12:15:25.933Z,12.32
2022-10-03T12:18:50.342Z,14.02
2022-10-03T12:21:58.287Z,14.52
2022-10-03T12:25:16.160Z,14.55
2022-10-03T12:28:25.112Z,14.18
2022-10-03T12:31:36.192Z,13.32
2022-10-03T12:34:44.015Z,16.38
2022-10-03T12:38:15.295Z,13.93
2022-10-03T12:41:32.880Z,14.82
2022-10-03T12:44:49.080Z,14.48
2022-10-03T12:48:28.058Z,14.52
2022-10-03T12:51:49.218Z,14.68
2022-10-03T12:55:16.737Z,12.57
2022-10-03T12:58:32.330Z,13.85
2022-10-03T13:01:54.058Z,12.38
2022-10-03T13:05:31.163Z,13.32
2022-10-03T13:09:09.470Z,13.35
2022-10-03T13:12:27.678Z,14.15
2022-10-03T13:15:55.021Z,13.55
2022-10-03T13:19:06.578Z,12.65
2022-10-03T13:22:29.967Z,14.13
2022-10-03T13:25:41.502Z,12.75
2022-10-03T13:29:13.226Z,12.65
2022-10-03T13:32:31.152Z,12.50
2022-10-03T13:35:59.802Z,13.95
2022-10-03T13:39:19.599Z,12.80
2022-10-03T13:42:36.255Z,14.80
2022-10-03T13:45:45.378Z,11.55
2022-10-03T13:49:02.003Z,14.10
2022-10-03T13:52:17.988Z,12.80
2022-10-03T13:55:36.299Z,11.88
2022-10-03T13:58:47.760Z,10.95
2022-10-03T14:02:01.838Z,11.32
2022-10-03T14:05:45.531Z,11.90
2022-10-03T14:09:10.616Z,11.18
2022-10-03T14:12:38.202Z,9.50
2022-10-03T14:15:55.851Z,8.32
2022-10-03T14:19:11.271Z,9.88
2022-10-03T14:22:29.357Z,9.18
2022-10-03T14:25:38.687Z,7.32
2022-10-03T14:28:49.652Z,7.70
2022-10-03T14:32:01.314Z,8.82
2022-10-03T14:35:19.341Z,7.80
2022-10-03T14:39:02.307Z,6.70
2022-10-03T14:42:42.250Z,7.57
2022-10-03T14:45:50.601Z,7.00
2022-10-03T14:48:59.934Z,6.25
2022-10-03T14:52:12.219Z,6.05
2022-10-03T14:55:27.674Z,6.85
2022-10-03T14:58:39.748Z,6.82
2022-10-03T15:01:50.685Z,5.93
2022-10-03T15:04:57.300Z,5.97
2022-10-03T15:08:14.997Z,6.22
2022-10-03T15:11:28.212Z,5.80
2022-10-03T15:14:36.709Z,5.38
2022-10-03T15:17:47.972Z,5.97
2022-10-03T15:20:55.691Z,5.25
2022-10-03T15:24:03.327Z,5.57
2022-10-03T15:27:20.224Z,4.90
2022-10-03T15:30:31.609Z,4.72
2022-10-03T15:33:38.950Z,4.50
2022-10-03T15:36:49.102Z,4.18
2022-10-03T15:39:54.283Z,4.93
2022-10-03T15:43:09.296Z,4.40
2022-10-03T15:46:22.950Z,4.72
2022-10-03T15:49:31.442Z,4.80
2022-10-03T15:52:41.495Z,4.82
2022-10-03T15:55:50.662Z,4.10
2022-10-03T15:59:01.188Z,4.47
2022-10-03T16:02:16.820Z,4.60
2022-10-03T16:05:25.586Z,4.90
2022-10-03T16:08:32.389Z,5.40
2022-10-03T16:11:45.493Z,4.80
2022-10-03T16:14:57.030Z,9.02
2022-10-03T16:18:05.011Z,5.30
2022-10-03T16:21:14.839Z,5.22
2022-10-03T16:24:29.843Z,6.15
2022-10-03T16:27:37.523Z,6.60
2022-10-03T16:30:49.487Z,5.85
2022-10-03T16:33:58.908Z,6.07
2022-10-03T16:37:06.975Z,5.28
2022-10-03T16:40:22.340Z,8.32
2022-10-03T16:43:27.740Z,5.95
2022-10-03T16:46:36.512Z,5.90
2022-10-03T16:50:03.771Z,6.00
2022-10-03T16:53:11.365Z,5.40
2022-10-03T16:56:20.336Z,6.45
2022-10-03T16:59:26.463Z,6.05
2022-10-03T17:02:33.173Z,6.28
2022-10-03T17:05:45.161Z,6.22
2022-10-03T17:08:52.967Z,6.18
2022-10-03T17:12:00.718Z,5.78
2022-10-03T17:15:09.611Z,6.32
2022-10-03T17:18:26.190Z,5.72
2022-10-03T17:21:33.371Z,5.15
2022-10-03T17:24:45.532Z,4.78
2022-10-03T17:27:52.094Z,5.78
2022-10-03T17:30:59.472Z,7.03
2022-10-03T17:34:15.906Z,5.68
2022-10-03T17:37:46.155Z,5.70
2022-10-03T17:41:02.619Z,5.78
2022-10-03T17:44:21.039Z,5.30
2022-10-03T17:47:31.416Z,5.88
2022-10-03T17:50:43.815Z,5.43
2022-10-03T17:53:57.386Z,5.93
2022-10-03T17:57:08.757Z,5.25
2022-10-03T18:00:21.098Z,5.50
2022-10-03T18:03:34.247Z,5.28
2022-10-03T18:06:47.137Z,5.47
2022-10-03T18:09:54.663Z,5.80
2022-10-03T18:13:02.088Z,5.88
2022-10-03T18:16:22.097Z,6.38
2022-10-03T18:19:44.907Z,6.60
2022-10-03T18:22:59.522Z,6.70
2022-10-03T18:26:19.545Z,6.22
2022-10-03T18:29:30.897Z,6.57
2022-10-03T18:32:39.809Z,6.35
2022-10-03T18:35:47.622Z,6.93
2022-10-03T18:38:57.847Z,6.80
2022-10-03T18:42:04.142Z,7.13
2022-10-03T18:45:20.991Z,6.03
2022-10-03T18:48:33.720Z,6.93
2022-10-03T18:51:41.354Z,6.82
2022-10-03T18:54:57.434Z,7.18
2022-10-03T18:58:10.068Z,7.72
2022-10-03T19:01:20.659Z,6.75
2022-10-03T19:04:38.274Z,6.38
2022-10-03T19:07:50.262Z,5.88
2022-10-03T19:11:01.486Z,6.40
2022-10-03T19:14:11.963Z,5.55
2022-10-03T19:17:25.595Z,6.13
2022-10-03T19:20:35.065Z,5.88
2022-10-03T19:23:41.450Z,6.15
2022-10-03T19:26:52.294Z,5.70
2022-10-03T19:29:58.249Z,6.43
2022-10-03T19:33:07.631Z,5.80
2022-10-03T19:36:20.095Z,5.00
2022-10-03T19:39:26.519Z,4.60
2022-10-03T19:42:40.176Z,5.30
2022-10-03T19:45:49.065Z,5.78
2022-10-03T19:49:19.843Z,5.35
2022-10-03T19:52:30.188Z,5.47
2022-10-03T19:55:37.339Z,5.13
2022-10-03T19:58:46.642Z,5.10
2022-10-03T20:01:51.950Z,5.20
2022-10-03T20:04:58.965Z,5.63
2022-10-03T20:08:17.440Z,5.13
2022-10-03T20:11:35.542Z,5.68
2022-10-03T20:14:43.875Z,5.07
2022-10-03T20:17:48.888Z,4.88
2022-10-03T20:20:56.303Z,5.43
2022-10-03T20:24:02.654Z,4.65
2022-10-03T20:27:32.844Z,5.15
2022-10-03T20:30:45.225Z,5.53
2022-10-03T20:33:50.457Z,5.00
2022-10-03T20:37:09.455Z,4.90
2022-10-03T20:40:35.355Z,5.07
2022-10-03T20:43:44.327Z,4.18
2022-10-03T20:46:53.041Z,4.10
2022-10-03T20:50:01.905Z,4.30
2022-10-03T20:53:20.679Z,4.22
2022-10-03T20:56:31.935Z,4.60
2022-10-03T20:59:46.778Z,5.07
2022-10-03T21:02:58.316Z,4.40
2022-10-03T21:06:04.232Z,4.20
2022-10-03T21:09:09.277Z,4.53
2022-10-03T21:12:20.607Z,4.07
2022-10-03T21:15:38.033Z,4.38
2022-10-03T21:18:47.467Z,4.43
2022-10-03T21:21:55.847Z,5.68
2022-10-03T21:25:02.896Z,4.45
2022-10-03T21:28:25.312Z,4.05
2022-10-03T21:31:38.406Z,4.25
2022-10-03T21:34:50.833Z,5.65
2022-10-03T21:38:06.284Z,4.68
2022-10-03T21:41:28.063Z,4.57
2022-10-03T21:44:54.681Z,5.13
2022-10-03T21:48:05.603Z,4.57
2022-10-03T21:51:26.731Z,4.78
2022-10-03T21:54:40.463Z,4.35
2022-10-03T21:57:57.601Z,5.15
2022-10-03T22:01:13.274Z,3.95
2022-10-03T22:04:24.528Z,4.38
2022-10-03T22:07:39.023Z,6.68
2022-10-03T22:10:58.447Z,3.97
2022-10-03T22:14:16.096Z,3.95
2022-10-03T22:17:29.276Z,4.90
2022-10-03T22:20:35.990Z,3.40
2022-10-03T22:23:50.904Z,5.45
2022-10-03T22:27:01.537Z,5.07
2022-10-03T22:30:09.494Z,3.03
2022-10-03T22:33:23.807Z,3.25
2022-10-03T22:36:30.045Z,3.13
2022-10-03T22:39:37.063Z,3.10
2022-10-03T22:42:46.179Z,2.58
2022-10-03T22:45:53.884Z,2.63
2022-10-03T22:49:04.611Z,2.50
2022-10-03T22:52:17.539Z,2.20
2022-10-03T22:55:25.777Z,2.38
2022-10-03T22:58:32.343Z,3.15
2022-10-03T23:01:38.235Z,2.38
2022-10-03T23:04:49.207Z,2.20
2022-10-03T23:08:05.147Z,2.17
2022-10-03T23:11:20.586Z,2.20
2022-10-03T23:14:28.509Z,2.10
2022-10-03T23:18:03.740Z,4.90
2022-10-03T23:21:10.397Z,1.50
2022-10-03T23:24:24.183Z,2.85
2022-10-03T23:27:47.815Z,1.70
2022-10-03T23:30:54.312Z,1.70
2022-10-03T23:33:59.357Z,1.80
2022-10-03T23:37:43.052Z,1.75
2022-10-03T23:40:50.934Z,1.58
2022-10-03T23:43:59.708Z,2.60
2022-10-03T23:47:06.439Z,1.55
2022-10-03T23:50:24.644Z,1.67
2022-10-03T23:53:34.679Z,1.83
2022-10-03T23:56:42.531Z,1.65
2022-10-03T23:59:49.535Z,1.80
